RAM1418 GMML-GCLP
Flight info
| Callsign | RAM1418 |
|---|---|
| Flight time | N/A |
| Altitude | 16000 |
| Route | LAY Q279 COSTI COST1Z |
| Aircraft | AT76/M-SDE2E3FGHIRWXY/LB1 |
Departure
| Time | 2026-04-25 23:02 |
|---|---|
| Airport | Laayoune Hassan I International Airport (GMML) |
Arrival
| Time | N/A |
|---|---|
| Airport | Gran Canaria Airport (GCLP) |
| Time | Latitude | Longitude | Altitude | Speed | Heading |
|---|---|---|---|---|---|
| 2026-04-25 22:48 | 27.15168 | -13.21813 | 213 ft | 0 kts | 32° |
| 2026-04-25 22:54 | 27.15177 | -13.21806 | 214 ft | 4 kts | 31° |
| 2026-04-25 22:55 | 27.15216 | -13.21801 | 214 ft | 7 kts | 344° |
| 2026-04-25 22:55 | 27.15225 | -13.21838 | 214 ft | 6 kts | 191° |
| 2026-04-25 22:55 | 27.15181 | -13.21823 | 214 ft | 7 kts | 172° |
| 2026-04-25 22:55 | 27.15130 | -13.21836 | 214 ft | 8 kts | 199° |
| 2026-04-25 22:56 | 27.15093 | -13.21810 | 214 ft | 9 kts | 123° |
| 2026-04-25 22:56 | 27.15042 | -13.21801 | 214 ft | 9 kts | 212° |
| 2026-04-25 22:56 | 27.14988 | -13.21840 | 214 ft | 9 kts | 212° |
| 2026-04-25 22:56 | 27.14932 | -13.21877 | 214 ft | 10 kts | 210° |
| 2026-04-25 22:57 | 27.14872 | -13.21917 | 214 ft | 10 kts | 210° |
| 2026-04-25 22:57 | 27.14817 | -13.21975 | 214 ft | 13 kts | 235° |
| 2026-04-25 22:57 | 27.14774 | -13.22086 | 214 ft | 18 kts | 262° |
| 2026-04-25 22:57 | 27.14783 | -13.22230 | 214 ft | 19 kts | 284° |
| 2026-04-25 22:58 | 27.14824 | -13.22375 | 214 ft | 19 kts | 286° |
| 2026-04-25 22:58 | 27.14863 | -13.22521 | 214 ft | 20 kts | 285° |
| 2026-04-25 22:58 | 27.14901 | -13.22668 | 214 ft | 20 kts | 287° |
| 2026-04-25 22:58 | 27.14862 | -13.22750 | 214 ft | 11 kts | 216° |
| 2026-04-25 22:59 | 27.14800 | -13.22774 | 214 ft | 10 kts | 197° |
| 2026-04-25 22:59 | 27.14726 | -13.22799 | 214 ft | 13 kts | 196° |
| 2026-04-25 22:59 | 27.14607 | -13.22837 | 214 ft | 24 kts | 196° |
| 2026-04-25 22:59 | 27.14408 | -13.22903 | 214 ft | 35 kts | 196° |
| 2026-04-25 23:00 | 27.14151 | -13.22988 | 214 ft | 42 kts | 196° |
| 2026-04-25 23:00 | 27.13856 | -13.23087 | 214 ft | 46 kts | 197° |
| 2026-04-25 23:00 | 27.13535 | -13.23192 | 214 ft | 50 kts | 197° |
| 2026-04-25 23:00 | 27.13195 | -13.23306 | 214 ft | 51 kts | 196° |
| 2026-04-25 23:01 | 27.13053 | -13.23375 | 214 ft | 8 kts | 261° |
| 2026-04-25 23:01 | 27.13028 | -13.23491 | 214 ft | 22 kts | 256° |
| 2026-04-25 23:01 | 27.13053 | -13.23535 | 214 ft | 14 kts | 3° |
| 2026-04-25 23:01 | 27.13425 | -13.23418 | 214 ft | 93 kts | 15° |
| 2026-04-25 23:02 | 27.14165 | -13.23161 | 489 ft | 115 kts | 18° |
| 2026-04-25 23:02 | 27.14949 | -13.22870 | 1070 ft | 128 kts | 17° |
| 2026-04-25 23:02 | 27.15551 | -13.22679 | 1377 ft | 140 kts | 15° |
| 2026-04-25 23:02 | 27.16535 | -13.22366 | 1880 ft | 156 kts | 15° |
| 2026-04-25 23:03 | 27.17917 | -13.22278 | 2702 ft | 153 kts | 348° |
| 2026-04-25 23:03 | 27.18530 | -13.22686 | 3061 ft | 157 kts | 330° |
| 2026-04-25 23:03 | 27.19298 | -13.24127 | 3625 ft | 167 kts | 300° |
| 2026-04-25 23:03 | 27.19615 | -13.24966 | 3750 ft | 177 kts | 298° |
| 2026-04-25 23:04 | 27.20079 | -13.26236 | 4255 ft | 174 kts | 297° |
| 2026-04-25 23:04 | 27.20533 | -13.27491 | 4659 ft | 175 kts | 297° |
| 2026-04-25 23:04 | 27.20997 | -13.28758 | 5050 ft | 176 kts | 297° |
| 2026-04-25 23:04 | 27.21464 | -13.30020 | 5544 ft | 171 kts | 292° |
| 2026-04-25 23:05 | 27.21962 | -13.31218 | 5968 ft | 174 kts | 299° |
| 2026-04-25 23:05 | 27.22449 | -13.32498 | 6356 ft | 177 kts | 296° |
| 2026-04-25 23:05 | 27.22911 | -13.33780 | 6785 ft | 177 kts | 295° |
| 2026-04-25 23:05 | 27.23373 | -13.35071 | 7221 ft | 177 kts | 295° |
| 2026-04-25 23:06 | 27.23835 | -13.36358 | 7628 ft | 178 kts | 294° |
| 2026-04-25 23:06 | 27.24295 | -13.37657 | 8042 ft | 179 kts | 294° |
| 2026-04-25 23:06 | 27.24762 | -13.38958 | 8454 ft | 179 kts | 294° |
| 2026-04-25 23:06 | 27.25230 | -13.40267 | 8859 ft | 181 kts | 293° |
| 2026-04-25 23:07 | 27.25693 | -13.41569 | 9237 ft | 183 kts | 292° |
| 2026-04-25 23:07 | 27.26177 | -13.42904 | 9586 ft | 187 kts | 292° |
| 2026-04-25 23:07 | 27.26661 | -13.44261 | 9956 ft | 188 kts | 292° |
| 2026-04-25 23:07 | 27.27141 | -13.45606 | 10314 ft | 190 kts | 292° |
| 2026-04-25 23:08 | 27.27647 | -13.47013 | 10689 ft | 190 kts | 292° |
| 2026-04-25 23:08 | 27.28144 | -13.48394 | 11059 ft | 191 kts | 292° |
| 2026-04-25 23:08 | 27.28640 | -13.49775 | 11428 ft | 191 kts | 292° |
| 2026-04-25 23:08 | 27.29140 | -13.51168 | 11770 ft | 193 kts | 292° |
| 2026-04-25 23:09 | 27.29642 | -13.52565 | 12122 ft | 194 kts | 292° |
| 2026-04-25 23:09 | 27.30147 | -13.53976 | 12480 ft | 195 kts | 292° |
| 2026-04-25 23:09 | 27.30653 | -13.55390 | 12853 ft | 195 kts | 292° |
| 2026-04-25 23:09 | 27.31159 | -13.56807 | 13204 ft | 196 kts | 292° |
| 2026-04-25 23:10 | 27.31671 | -13.58242 | 13552 ft | 198 kts | 292° |
| 2026-04-25 23:10 | 27.32183 | -13.59677 | 13890 ft | 199 kts | 292° |
| 2026-04-25 23:10 | 27.32545 | -13.60692 | 14132 ft | 199 kts | 292° |
| 2026-04-25 23:11 | 27.32944 | -13.61811 | 14411 ft | 199 kts | 292° |
| 2026-04-25 23:12 | 27.33457 | -13.63247 | 14735 ft | 201 kts | 292° |
| 2026-04-25 23:12 | 27.33987 | -13.64729 | 15070 ft | 201 kts | 292° |
| 2026-04-25 23:12 | 27.34505 | -13.66172 | 15385 ft | 203 kts | 292° |
| 2026-04-25 23:12 | 27.35037 | -13.67640 | 15737 ft | 202 kts | 292° |
| 2026-04-25 23:13 | 27.35586 | -13.69101 | 16043 ft | 204 kts | 292° |
| 2026-04-25 23:13 | 27.36113 | -13.70630 | 16130 ft | 215 kts | 289° |
| 2026-04-25 23:13 | 27.36576 | -13.72284 | 16149 ft | 228 kts | 287° |
| 2026-04-25 23:13 | 27.37034 | -13.74039 | 16150 ft | 239 kts | 286° |
| 2026-04-25 23:14 | 27.37505 | -13.75863 | 16149 ft | 246 kts | 286° |
| 2026-04-25 23:14 | 27.38002 | -13.77735 | 16147 ft | 252 kts | 287° |
| 2026-04-25 23:14 | 27.38512 | -13.79648 | 16147 ft | 257 kts | 287° |
| 2026-04-25 23:14 | 27.39032 | -13.81584 | 16146 ft | 261 kts | 287° |
| 2026-04-25 23:15 | 27.39557 | -13.83546 | 16145 ft | 263 kts | 287° |
| 2026-04-25 23:15 | 27.40069 | -13.85533 | 16145 ft | 265 kts | 286° |
| 2026-04-25 23:15 | 27.40579 | -13.87524 | 16145 ft | 266 kts | 287° |
| 2026-04-25 23:15 | 27.41107 | -13.89530 | 16144 ft | 267 kts | 287° |
| 2026-04-25 23:16 | 27.41641 | -13.91536 | 16144 ft | 267 kts | 287° |
| 2026-04-25 23:16 | 27.42174 | -13.93532 | 16144 ft | 267 kts | 287° |
| 2026-04-25 23:16 | 27.42706 | -13.95525 | 16144 ft | 267 kts | 287° |
| 2026-04-25 23:16 | 27.43239 | -13.97532 | 16144 ft | 266 kts | 287° |
| 2026-04-25 23:17 | 27.43753 | -13.99537 | 16144 ft | 266 kts | 286° |
| 2026-04-25 23:17 | 27.44258 | -14.01508 | 16144 ft | 266 kts | 287° |
| 2026-04-25 23:17 | 27.44785 | -14.03513 | 16144 ft | 266 kts | 287° |
| 2026-04-25 23:17 | 27.45301 | -14.05456 | 16144 ft | 266 kts | 287° |
| 2026-04-25 23:18 | 27.45863 | -14.07568 | 16144 ft | 266 kts | 287° |
| 2026-04-25 23:18 | 27.46395 | -14.09569 | 16144 ft | 266 kts | 287° |
| 2026-04-25 23:18 | 27.46914 | -14.11575 | 16144 ft | 266 kts | 286° |
| 2026-04-25 23:18 | 27.47421 | -14.13574 | 16144 ft | 266 kts | 286° |
| 2026-04-25 23:19 | 27.47944 | -14.15579 | 16144 ft | 266 kts | 287° |
| 2026-04-25 23:19 | 27.48472 | -14.17577 | 16144 ft | 266 kts | 287° |
| 2026-04-25 23:19 | 27.49001 | -14.19572 | 16144 ft | 266 kts | 287° |
| 2026-04-25 23:19 | 27.49561 | -14.21724 | 16145 ft | 265 kts | 287° |
| 2026-04-25 23:20 | 27.50071 | -14.23719 | 16142 ft | 264 kts | 287° |
| 2026-04-25 23:20 | 27.50588 | -14.25700 | 16143 ft | 264 kts | 287° |
| 2026-04-25 23:20 | 27.50937 | -14.27024 | 16144 ft | 265 kts | 287° |
| 2026-04-25 23:20 | 27.51462 | -14.29016 | 16144 ft | 265 kts | 287° |
| 2026-04-25 23:21 | 27.51984 | -14.31001 | 16144 ft | 265 kts | 287° |
| 2026-04-25 23:21 | 27.52509 | -14.32993 | 16144 ft | 265 kts | 287° |
| 2026-04-25 23:21 | 27.53029 | -14.34987 | 16144 ft | 265 kts | 287° |
| 2026-04-25 23:21 | 27.53531 | -14.36983 | 16144 ft | 265 kts | 286° |
| 2026-04-25 23:22 | 27.54036 | -14.38986 | 16144 ft | 266 kts | 286° |
| 2026-04-25 23:22 | 27.54549 | -14.40968 | 16103 ft | 268 kts | 287° |
| 2026-04-25 23:22 | 27.55090 | -14.43035 | 15935 ft | 272 kts | 287° |
| 2026-04-25 23:23 | 27.56172 | -14.47175 | 15584 ft | 275 kts | 287° |
| 2026-04-25 23:23 | 27.56702 | -14.49210 | 15412 ft | 275 kts | 287° |
| 2026-04-25 23:23 | 27.57236 | -14.51264 | 15235 ft | 271 kts | 287° |
| 2026-04-25 23:23 | 27.57761 | -14.53294 | 15058 ft | 267 kts | 287° |
| 2026-04-25 23:24 | 27.58275 | -14.55288 | 14882 ft | 264 kts | 287° |
| 2026-04-25 23:24 | 27.58785 | -14.57276 | 14706 ft | 263 kts | 287° |
| 2026-04-25 23:24 | 27.59294 | -14.59265 | 14530 ft | 264 kts | 287° |
| 2026-04-25 23:24 | 27.59804 | -14.61262 | 14356 ft | 265 kts | 287° |
| 2026-04-25 23:25 | 27.60312 | -14.63256 | 14198 ft | 264 kts | 287° |
| 2026-04-25 23:25 | 27.60817 | -14.65249 | 14048 ft | 264 kts | 287° |
| 2026-04-25 23:25 | 27.61319 | -14.67232 | 13898 ft | 263 kts | 287° |
| 2026-04-25 23:25 | 27.61816 | -14.69195 | 13749 ft | 262 kts | 287° |
| 2026-04-25 23:26 | 27.62319 | -14.71169 | 13599 ft | 262 kts | 287° |
| 2026-04-25 23:26 | 27.62840 | -14.73140 | 13448 ft | 261 kts | 287° |
| 2026-04-25 23:26 | 27.63355 | -14.75108 | 13298 ft | 261 kts | 287° |
| 2026-04-25 23:26 | 27.63856 | -14.77066 | 13148 ft | 261 kts | 287° |
| 2026-04-25 23:27 | 27.64356 | -14.79046 | 12997 ft | 261 kts | 287° |
| 2026-04-25 23:27 | 27.64851 | -14.81012 | 12847 ft | 261 kts | 287° |
| 2026-04-25 23:27 | 27.65350 | -14.82990 | 12697 ft | 261 kts | 287° |
| 2026-04-25 23:27 | 27.65656 | -14.84170 | 12604 ft | 261 kts | 287° |